logo dgac
Sábado 16 de Febrero del 2019
Buscar por aerodromo o helipuerto
Ingrese nombre de aeródromo, localidad o designador OACI:

Aeródromo: Pichoy (PUB) (SCVD)

Ubicación: Valdivia, XIV Región, Chile (39º 38' 58'' S, 73º 05' 11'' W) Ver ubicación en el mapa

Pistas

Orientación Dimensión Pendiente Superficie Resistencia APCH THR RWY PAPI
17/35 2100 x 45 0,07 ASPH PCN 57 F/C/W/T Sí (3º)
Horas de operación HJ
Elevación 18 m / 59 ft
Otra Información Adm : DGAC
Uso : PUB
TEL : (56-63) 2272297/2272295 TEL ARO 63-2272220
Ubicado a 32 km NE de Valdivia

Otra información ver AIP-Chile Volumen I AD 3.9-20.1-V




CCCM/FCCV Descargar
andera de Chile
Mapa de Pichoy (PUB) (SCVD)

Último METAR

METAR SCVD 161000Z AUTO 06001KT 6000 BR NCD 10/10 Q1013

Último TAF

No hay tafs registrados para este aeródromo

Últimas fotos cámaras

Imagen aerodromo Pichoy (PUB) (SCVD) Norte tomada el 16-02-2019 07:34:34 Imagen aerodromo Pichoy (PUB) (SCVD) Sur tomada el 16-02-2019 07:34:32

Último NOTAM

B0170/19 NOTAMN Q)SCTZ/QNMAS/IV/BO/A/000/999/3939S07305W005 A)SCVD B)1902191800 C)1902191900 E)DVOR/DME VLD 114.5 MHZ CH92X U/S MAINT

LLegadas a Pichoy (PUB) (SCVD)

En vuelo

Vuelo Procedencia Hora Despegue Local Hora Arribo Local

Salidas de Pichoy (PUB) (SCVD)

En vuelo

Vuelo Hacia Hora Despegue Local Hora Arribo Local